sensor_id;sensor_type;location;lat;lon;timestamp;pressure;altitude;pressure_sealevel;temperature;humidity
76827;BME280;65788;52.284;20.890;2022-12-05T00:00:39;101317.87;;;18.43;35.14
76827;BME280;65788;52.284;20.890;2022-12-05T00:03:11;101313.60;;;18.40;35.14
76827;BME280;65788;52.284;20.890;2022-12-05T00:05:42;101308.52;;;18.39;35.12
76827;BME280;65788;52.284;20.890;2022-12-05T00:08:13;101307.91;;;18.34;35.17
76827;BME280;65788;52.284;20.890;2022-12-05T00:10:44;101306.92;;;18.31;35.21
76827;BME280;65788;52.284;20.890;2022-12-05T00:13:15;101306.43;;;18.30;35.16
76827;BME280;65788;52.284;20.890;2022-12-05T00:15:45;101308.29;;;18.28;35.14
76827;BME280;65788;52.284;20.890;2022-12-05T00:18:16;101307.45;;;18.23;35.15
76827;BME280;65788;52.284;20.890;2022-12-05T00:20:48;101308.98;;;18.20;35.15
76827;BME280;65788;52.284;20.890;2022-12-05T00:23:19;101306.64;;;18.16;35.19
76827;BME280;65788;52.284;20.890;2022-12-05T00:25:50;101309.91;;;18.12;35.28
76827;BME280;65788;52.284;20.890;2022-12-05T00:28:21;101316.02;;;18.09;35.21
76827;BME280;65788;52.284;20.890;2022-12-05T00:30:51;101310.54;;;18.08;35.19
76827;BME280;65788;52.284;20.890;2022-12-05T00:33:23;101319.02;;;18.07;35.21
76827;BME280;65788;52.284;20.890;2022-12-05T00:35:54;101318.23;;;18.08;35.20
76827;BME280;65788;52.284;20.890;2022-12-05T00:38:24;101315.23;;;18.05;35.20
76827;BME280;65788;52.284;20.890;2022-12-05T00:40:55;101319.42;;;18.04;35.22
76827;BME280;65788;52.284;20.890;2022-12-05T00:43:26;101321.69;;;18.00;35.26
76827;BME280;65788;52.284;20.890;2022-12-05T00:45:56;101321.63;;;17.99;35.34
76827;BME280;65788;52.284;20.890;2022-12-05T00:48:30;101316.98;;;17.98;35.37
76827;BME280;65788;52.284;20.890;2022-12-05T00:51:06;101313.75;;;17.97;35.37
76827;BME280;65788;52.284;20.890;2022-12-05T00:53:37;101316.63;;;17.95;35.40
76827;BME280;65788;52.284;20.890;2022-12-05T00:56:10;101320.93;;;17.93;35.44
76827;BME280;65788;52.284;20.890;2022-12-05T00:58:42;101323.86;;;17.91;35.47
76827;BME280;65788;52.284;20.890;2022-12-05T01:01:14;101324.09;;;17.93;35.38
76827;BME280;65788;52.284;20.890;2022-12-05T01:03:46;101326.89;;;17.91;35.41
76827;BME280;65788;52.284;20.890;2022-12-05T01:06:17;101322.06;;;17.88;35.45
76827;BME280;65788;52.284;20.890;2022-12-05T01:08:48;101313.89;;;17.86;35.47
76827;BME280;65788;52.284;20.890;2022-12-05T01:11:19;101312.80;;;17.84;35.52
76827;BME280;65788;52.284;20.890;2022-12-05T01:13:52;101313.54;;;17.84;35.53
76827;BME280;65788;52.284;20.890;2022-12-05T01:16:25;101310.30;;;17.83;35.51
76827;BME280;65788;52.284;20.890;2022-12-05T01:18:56;101308.70;;;17.83;35.52
76827;BME280;65788;52.284;20.890;2022-12-05T01:21:27;101304.55;;;17.79;35.57
76827;BME280;65788;52.284;20.890;2022-12-05T01:23:58;101299.33;;;17.80;35.55
76827;BME280;65788;52.284;20.890;2022-12-05T01:26:29;101296.99;;;17.78;35.59
76827;BME280;65788;52.284;20.890;2022-12-05T01:28:59;101294.30;;;17.77;35.60
76827;BME280;65788;52.284;20.890;2022-12-05T01:31:32;101289.67;;;17.75;35.56
76827;BME280;65788;52.284;20.890;2022-12-05T01:34:07;101294.13;;;17.73;35.58
76827;BME280;65788;52.284;20.890;2022-12-05T01:36:40;101290.91;;;17.69;35.59
76827;BME280;65788;52.284;20.890;2022-12-05T01:39:12;101284.30;;;17.68;35.66
76827;BME280;65788;52.284;20.890;2022-12-05T01:41:45;101284.56;;;17.67;35.65
76827;BME280;65788;52.284;20.890;2022-12-05T01:47:25;101284.52;;;17.63;35.70
76827;BME280;65788;52.284;20.890;2022-12-05T01:49:58;101277.67;;;17.62;35.73
76827;BME280;65788;52.284;20.890;2022-12-05T01:52:30;101282.96;;;17.61;35.73
76827;BME280;65788;52.284;20.890;2022-12-05T01:55:07;101285.49;;;17.58;35.77
76827;BME280;65788;52.284;20.890;2022-12-05T01:57:40;101282.25;;;17.58;35.74
76827;BME280;65788;52.284;20.890;2022-12-05T02:00:17;101283.52;;;17.58;35.75
76827;BME280;65788;52.284;20.890;2022-12-05T02:02:50;101280.23;;;17.59;35.69
76827;BME280;65788;52.284;20.890;2022-12-05T02:05:24;101276.71;;;17.58;35.67
76827;BME280;65788;52.284;20.890;2022-12-05T02:07:58;101270.95;;;17.54;35.75
76827;BME280;65788;52.284;20.890;2022-12-05T02:10:32;101268.06;;;17.54;35.72
76827;BME280;65788;52.284;20.890;2022-12-05T02:13:11;101267.39;;;17.52;35.80
76827;BME280;65788;52.284;20.890;2022-12-05T02:15:48;101263.98;;;17.52;35.74
76827;BME280;65788;52.284;20.890;2022-12-05T02:18:33;101260.38;;;17.50;35.74
76827;BME280;65788;52.284;20.890;2022-12-05T02:21:24;101255.49;;;17.49;35.78
76827;BME280;65788;52.284;20.890;2022-12-05T02:24:24;101252.94;;;17.47;35.76
76827;BME280;65788;52.284;20.890;2022-12-05T02:27:16;101252.39;;;17.46;35.73
76827;BME280;65788;52.284;20.890;2022-12-05T02:29:56;101252.75;;;17.44;35.75
76827;BME280;65788;52.284;20.890;2022-12-05T02:32:40;101250.45;;;17.42;35.71
76827;BME280;65788;52.284;20.890;2022-12-05T02:35:25;101249.34;;;17.44;35.71
76827;BME280;65788;52.284;20.890;2022-12-05T02:38:03;101252.23;;;17.44;35.71
76827;BME280;65788;52.284;20.890;2022-12-05T02:40:45;101251.47;;;17.41;35.73
76827;BME280;65788;52.284;20.890;2022-12-05T02:43:24;101245.36;;;17.39;35.72
76827;BME280;65788;52.284;20.890;2022-12-05T02:45:59;101243.46;;;17.38;35.75
76827;BME280;65788;52.284;20.890;2022-12-05T02:48:33;101241.24;;;17.37;35.74
76827;BME280;65788;52.284;20.890;2022-12-05T02:51:05;101237.77;;;17.34;35.77
76827;BME280;65788;52.284;20.890;2022-12-05T02:53:39;101230.79;;;17.33;35.77
76827;BME280;65788;52.284;20.890;2022-12-05T02:56:13;101226.61;;;17.30;35.80
76827;BME280;65788;52.284;20.890;2022-12-05T02:58:49;101218.24;;;17.29;35.76
76827;BME280;65788;52.284;20.890;2022-12-05T03:01:23;101212.59;;;17.28;35.72
76827;BME280;65788;52.284;20.890;2022-12-05T03:03:56;101206.72;;;17.27;35.73
76827;BME280;65788;52.284;20.890;2022-12-05T03:06:30;101205.71;;;17.27;35.67
76827;BME280;65788;52.284;20.890;2022-12-05T03:09:06;101202.16;;;17.26;35.70
76827;BME280;65788;52.284;20.890;2022-12-05T03:11:43;101202.42;;;17.22;35.70
76827;BME280;65788;52.284;20.890;2022-12-05T03:14:18;101207.02;;;17.24;35.62
76827;BME280;65788;52.284;20.890;2022-12-05T03:16:51;101198.37;;;17.22;35.64
76827;BME280;65788;52.284;20.890;2022-12-05T03:19:28;101198.41;;;17.24;35.64
76827;BME280;65788;52.284;20.890;2022-12-05T03:22:02;101205.19;;;17.21;35.71
76827;BME280;65788;52.284;20.890;2022-12-05T03:24:38;101205.46;;;17.20;35.68
76827;BME280;65788;52.284;20.890;2022-12-05T03:27:17;101213.48;;;17.22;35.63
76827;BME280;65788;52.284;20.890;2022-12-05T03:29:52;101213.08;;;17.22;35.61
76827;BME280;65788;52.284;20.890;2022-12-05T03:32:29;101215.02;;;17.21;35.67
76827;BME280;65788;52.284;20.890;2022-12-05T03:35:08;101223.73;;;17.17;35.75
76827;BME280;65788;52.284;20.890;2022-12-05T03:37:49;101223.05;;;17.18;35.65
76827;BME280;65788;52.284;20.890;2022-12-05T03:40:30;101234.19;;;17.15;35.72
76827;BME280;65788;52.284;20.890;2022-12-05T03:43:13;101243.92;;;17.16;35.75
76827;BME280;65788;52.284;20.890;2022-12-05T03:45:51;101247.00;;;17.15;35.70
76827;BME280;65788;52.284;20.890;2022-12-05T03:48:29;101246.36;;;17.15;35.68
76827;BME280;65788;52.284;20.890;2022-12-05T03:51:03;101246.57;;;17.12;35.71
76827;BME280;65788;52.284;20.890;2022-12-05T03:53:39;101242.75;;;17.13;35.69
76827;BME280;65788;52.284;20.890;2022-12-05T03:56:14;101237.94;;;17.10;35.72
76827;BME280;65788;52.284;20.890;2022-12-05T03:58:50;101236.98;;;17.12;35.64
76827;BME280;65788;52.284;20.890;2022-12-05T04:01:22;101239.30;;;17.09;35.70
76827;BME280;65788;52.284;20.890;2022-12-05T04:03:59;101237.44;;;17.11;35.70
76827;BME280;65788;52.284;20.890;2022-12-05T04:06:33;101230.58;;;17.10;35.68
76827;BME280;65788;52.284;20.890;2022-12-05T04:09:08;101226.65;;;17.07;35.71
76827;BME280;65788;52.284;20.890;2022-12-05T04:11:44;101226.44;;;17.04;35.73
76827;BME280;65788;52.284;20.890;2022-12-05T04:14:21;101219.89;;;17.06;35.67
76827;BME280;65788;52.284;20.890;2022-12-05T04:16:59;101217.38;;;17.04;35.72
76827;BME280;65788;52.284;20.890;2022-12-05T04:19:38;101210.66;;;17.03;35.70
76827;BME280;65788;52.284;20.890;2022-12-05T04:22:40;101217.02;;;17.02;35.70
76827;BME280;65788;52.284;20.890;2022-12-05T04:25:14;101213.75;;;17.00;35.70
76827;BME280;65788;52.284;20.890;2022-12-05T04:28:19;101215.36;;;17.00;35.73
76827;BME280;65788;52.284;20.890;2022-12-05T04:30:56;101209.33;;;16.98;35.74
76827;BME280;65788;52.284;20.890;2022-12-05T04:33:36;101210.59;;;16.99;35.71
76827;BME280;65788;52.284;20.890;2022-12-05T04:36:14;101207.56;;;17.00;35.68
76827;BME280;65788;52.284;20.890;2022-12-05T04:38:51;101207.05;;;16.99;35.69
76827;BME280;65788;52.284;20.890;2022-12-05T04:41:26;101203.61;;;16.99;35.70
76827;BME280;65788;52.284;20.890;2022-12-05T04:44:02;101201.39;;;16.96;35.75
76827;BME280;65788;52.284;20.890;2022-12-05T04:46:35;101204.43;;;16.95;35.81
76827;BME280;65788;52.284;20.890;2022-12-05T04:49:10;101206.64;;;16.95;35.77
76827;BME280;65788;52.284;20.890;2022-12-05T04:51:43;101199.55;;;16.96;35.73
76827;BME280;65788;52.284;20.890;2022-12-05T04:54:21;101202.91;;;16.99;35.74
76827;BME280;65788;52.284;20.890;2022-12-05T04:56:58;101209.66;;;17.05;35.74
76827;BME280;65788;52.284;20.890;2022-12-05T04:59:33;101207.65;;;17.21;35.53
76827;BME280;65788;52.284;20.890;2022-12-05T05:02:08;101205.88;;;17.32;35.43
76827;BME280;65788;52.284;20.890;2022-12-05T05:04:43;101205.66;;;17.40;35.39
76827;BME280;65788;52.284;20.890;2022-12-05T05:07:20;101203.06;;;17.47;35.27
76827;BME280;65788;52.284;20.890;2022-12-05T05:09:51;101204.48;;;17.55;34.98
76827;BME280;65788;52.284;20.890;2022-12-05T05:12:22;101207.48;;;17.61;34.97
76827;BME280;65788;52.284;20.890;2022-12-05T05:14:53;101210.01;;;17.67;34.86
76827;BME280;65788;52.284;20.890;2022-12-05T05:17:24;101218.38;;;17.74;34.79
76827;BME280;65788;52.284;20.890;2022-12-05T05:19:54;101219.48;;;17.82;34.68
76827;BME280;65788;52.284;20.890;2022-12-05T05:22:48;101218.11;;;17.90;34.64
76827;BME280;65788;52.284;20.890;2022-12-05T05:25:19;101218.61;;;17.97;34.64
76827;BME280;65788;52.284;20.890;2022-12-05T05:27:52;101218.55;;;18.01;34.55
76827;BME280;65788;52.284;20.890;2022-12-05T05:30:24;101220.98;;;18.07;34.50
76827;BME280;65788;52.284;20.890;2022-12-05T05:32:55;101223.45;;;18.09;34.44
76827;BME280;65788;52.284;20.890;2022-12-05T05:35:26;101225.24;;;18.17;34.72
76827;BME280;65788;52.284;20.890;2022-12-05T05:37:59;101226.91;;;18.23;34.89
76827;BME280;65788;52.284;20.890;2022-12-05T05:40:31;101226.30;;;18.26;34.74
76827;BME280;65788;52.284;20.890;2022-12-05T05:43:09;101227.49;;;18.30;34.67
76827;BME280;65788;52.284;20.890;2022-12-05T05:45:39;101225.97;;;18.35;34.71
76827;BME280;65788;52.284;20.890;2022-12-05T05:48:10;101227.01;;;18.35;34.76
76827;BME280;65788;52.284;20.890;2022-12-05T05:50:41;101222.25;;;18.45;35.07
76827;BME280;65788;52.284;20.890;2022-12-05T05:53:12;101220.13;;;18.50;35.46
76827;BME280;65788;52.284;20.890;2022-12-05T05:55:43;101223.90;;;18.53;35.79
76827;BME280;65788;52.284;20.890;2022-12-05T05:58:14;101217.86;;;18.49;35.78
76827;BME280;65788;52.284;20.890;2022-12-05T06:00:45;101219.98;;;18.43;35.75
76827;BME280;65788;52.284;20.890;2022-12-05T06:03:16;101228.06;;;18.39;35.69
76827;BME280;65788;52.284;20.890;2022-12-05T06:05:56;101230.30;;;18.41;35.70
76827;BME280;65788;52.284;20.890;2022-12-05T06:08:29;101232.23;;;18.39;35.72
76827;BME280;65788;52.284;20.890;2022-12-05T06:11:03;101228.23;;;18.43;35.67
76827;BME280;65788;52.284;20.890;2022-12-05T06:13:37;101227.30;;;18.54;35.84
76827;BME280;65788;52.284;20.890;2022-12-05T06:16:11;101226.62;;;18.72;36.56
76827;BME280;65788;52.284;20.890;2022-12-05T06:18:43;101223.73;;;18.80;36.48
76827;BME280;65788;52.284;20.890;2022-12-05T06:21:14;101216.73;;;18.81;36.31
76827;BME280;65788;52.284;20.890;2022-12-05T06:23:44;101219.36;;;18.84;36.12
76827;BME280;65788;52.284;20.890;2022-12-05T06:26:17;101222.37;;;18.89;35.98
76827;BME280;65788;52.284;20.890;2022-12-05T06:28:48;101226.67;;;18.92;35.92
76827;BME280;65788;52.284;20.890;2022-12-05T06:31:23;101223.14;;;18.92;35.84
76827;BME280;65788;52.284;20.890;2022-12-05T06:34:01;101219.78;;;18.94;35.71
76827;BME280;65788;52.284;20.890;2022-12-05T06:36:35;101217.27;;;18.95;35.59
76827;BME280;65788;52.284;20.890;2022-12-05T06:39:06;101213.52;;;18.96;35.81
76827;BME280;65788;52.284;20.890;2022-12-05T06:41:38;101212.95;;;19.16;36.65
76827;BME280;65788;52.284;20.890;2022-12-05T06:44:10;101216.54;;;19.31;37.55
76827;BME280;65788;52.284;20.890;2022-12-05T06:46:40;101222.72;;;19.36;38.20
76827;BME280;65788;52.284;20.890;2022-12-05T06:49:11;101224.83;;;19.46;37.63
76827;BME280;65788;52.284;20.890;2022-12-05T06:51:43;101225.55;;;19.52;37.74
76827;BME280;65788;52.284;20.890;2022-12-05T06:54:14;101230.02;;;19.61;37.75
76827;BME280;65788;52.284;20.890;2022-12-05T06:56:45;101226.77;;;19.61;36.94
76827;BME280;65788;52.284;20.890;2022-12-05T06:59:16;101227.86;;;19.65;36.21
76827;BME280;65788;52.284;20.890;2022-12-05T07:01:48;101226.01;;;19.69;36.04
76827;BME280;65788;52.284;20.890;2022-12-05T07:04:21;101230.01;;;19.74;36.43
76827;BME280;65788;52.284;20.890;2022-12-05T07:06:54;101233.27;;;19.82;36.29
76827;BME280;65788;52.284;20.890;2022-12-05T07:09:26;101229.61;;;19.90;36.05
76827;BME280;65788;52.284;20.890;2022-12-05T07:12:13;101220.67;;;19.89;35.17
76827;BME280;65788;52.284;20.890;2022-12-05T07:14:44;101215.47;;;19.83;34.46
76827;BME280;65788;52.284;20.890;2022-12-05T07:17:16;101217.89;;;19.82;34.42
76827;BME280;65788;52.284;20.890;2022-12-05T07:19:49;101211.34;;;19.85;34.24
76827;BME280;65788;52.284;20.890;2022-12-05T07:22:22;101214.70;;;19.92;34.80
76827;BME280;65788;52.284;20.890;2022-12-05T07:24:53;101217.63;;;19.93;34.04
76827;BME280;65788;52.284;20.890;2022-12-05T07:27:24;101219.67;;;19.95;34.04
76827;BME280;65788;52.284;20.890;2022-12-05T07:29:55;101219.52;;;19.99;34.12
76827;BME280;65788;52.284;20.890;2022-12-05T07:32:29;101215.55;;;20.20;34.45
76827;BME280;65788;52.284;20.890;2022-12-05T07:35:00;101211.95;;;20.19;34.19
76827;BME280;65788;52.284;20.890;2022-12-05T07:37:32;101205.13;;;20.20;34.45
76827;BME280;65788;52.284;20.890;2022-12-05T07:40:03;101205.60;;;20.26;34.37
76827;BME280;65788;52.284;20.890;2022-12-05T07:42:35;101207.80;;;20.20;33.45
76827;BME280;65788;52.284;20.890;2022-12-05T07:45:08;101207.58;;;20.15;33.49
76827;BME280;65788;52.284;20.890;2022-12-05T07:47:39;101208.39;;;20.13;33.33
76827;BME280;65788;52.284;20.890;2022-12-05T07:50:12;101206.92;;;20.19;33.68
76827;BME280;65788;52.284;20.890;2022-12-05T07:52:43;101200.66;;;20.19;33.24
76827;BME280;65788;52.284;20.890;2022-12-05T07:55:14;101194.16;;;20.31;33.43
76827;BME280;65788;52.284;20.890;2022-12-05T07:57:45;101194.50;;;20.30;33.08
76827;BME280;65788;52.284;20.890;2022-12-05T08:00:19;101190.20;;;20.27;33.20
76827;BME280;65788;52.284;20.890;2022-12-05T08:02:50;101188.92;;;20.28;33.00
76827;BME280;65788;52.284;20.890;2022-12-05T08:05:20;101185.92;;;20.22;33.01
76827;BME280;65788;52.284;20.890;2022-12-05T08:07:51;101188.02;;;20.23;32.98
76827;BME280;65788;52.284;20.890;2022-12-05T08:10:22;101179.76;;;20.38;32.86
76827;BME280;65788;52.284;20.890;2022-12-05T08:12:53;101177.11;;;20.40;32.71
76827;BME280;65788;52.284;20.890;2022-12-05T08:15:24;101178.39;;;20.32;32.71
76827;BME280;65788;52.284;20.890;2022-12-05T08:17:54;101180.70;;;20.31;32.70
76827;BME280;65788;52.284;20.890;2022-12-05T08:20:25;101179.52;;;20.34;32.70
76827;BME280;65788;52.284;20.890;2022-12-05T08:22:56;101186.88;;;20.39;32.59
76827;BME280;65788;52.284;20.890;2022-12-05T08:25:27;101186.73;;;20.40;32.54
76827;BME280;65788;52.284;20.890;2022-12-05T08:27:58;101188.02;;;20.33;32.65
76827;BME280;65788;52.284;20.890;2022-12-05T08:30:30;101191.44;;;20.38;32.48
76827;BME280;65788;52.284;20.890;2022-12-05T08:33:01;101198.98;;;20.41;32.42
76827;BME280;65788;52.284;20.890;2022-12-05T08:35:32;101202.22;;;20.35;32.51
76827;BME280;65788;52.284;20.890;2022-12-05T08:38:06;101199.82;;;20.36;32.45
76827;BME280;65788;52.284;20.890;2022-12-05T08:40:37;101197.20;;;20.30;32.52
76827;BME280;65788;52.284;20.890;2022-12-05T08:43:08;101195.09;;;20.28;32.53
76827;BME280;65788;52.284;20.890;2022-12-05T08:45:38;101199.15;;;20.30;32.46
76827;BME280;65788;52.284;20.890;2022-12-05T08:48:10;101198.55;;;20.28;32.47
76827;BME280;65788;52.284;20.890;2022-12-05T08:50:41;101191.32;;;20.39;32.53
76827;BME280;65788;52.284;20.890;2022-12-05T08:53:14;101192.70;;;20.50;33.76
76827;BME280;65788;52.284;20.890;2022-12-05T08:55:46;101188.06;;;20.56;33.60
76827;BME280;65788;52.284;20.890;2022-12-05T08:58:17;101187.19;;;20.49;33.17
76827;BME280;65788;52.284;20.890;2022-12-05T09:00:50;101191.49;;;20.41;32.52
76827;BME280;65788;52.284;20.890;2022-12-05T09:03:22;101183.77;;;20.43;32.47
76827;BME280;65788;52.284;20.890;2022-12-05T09:05:54;101180.13;;;20.48;32.37
76827;BME280;65788;52.284;20.890;2022-12-05T09:08:34;101183.99;;;20.51;32.34
76827;BME280;65788;52.284;20.890;2022-12-05T09:11:08;101180.81;;;20.44;32.36
76827;BME280;65788;52.284;20.890;2022-12-05T09:13:39;101171.64;;;20.43;32.34
76827;BME280;65788;52.284;20.890;2022-12-05T09:16:12;101172.79;;;20.37;32.38
76827;BME280;65788;52.284;20.890;2022-12-05T09:18:44;101172.22;;;20.48;32.80
76827;BME280;65788;52.284;20.890;2022-12-05T09:21:16;101163.63;;;21.37;31.55
76827;BME280;65788;52.284;20.890;2022-12-05T09:23:49;101153.58;;;21.60;30.62
76827;BME280;65788;52.284;20.890;2022-12-05T09:26:22;101153.25;;;21.53;30.71
76827;BME280;65788;52.284;20.890;2022-12-05T09:28:54;101148.20;;;21.55;30.37
76827;BME280;65788;52.284;20.890;2022-12-05T09:31:26;101141.38;;;21.56;30.86
76827;BME280;65788;52.284;20.890;2022-12-05T09:33:59;101137.30;;;21.52;30.54
76827;BME280;65788;52.284;20.890;2022-12-05T09:36:31;101136.90;;;21.43;30.57
76827;BME280;65788;52.284;20.890;2022-12-05T09:39:04;101132.14;;;21.22;30.74
76827;BME280;65788;52.284;20.890;2022-12-05T09:41:46;101129.92;;;21.10;30.94
76827;BME280;65788;52.284;20.890;2022-12-05T09:44:54;101130.20;;;21.42;30.46
76827;BME280;65788;52.284;20.890;2022-12-05T09:47:35;101131.05;;;21.29;30.52
76827;BME280;65788;52.284;20.890;2022-12-05T09:50:16;101130.60;;;21.36;30.40
76827;BME280;65788;52.284;20.890;2022-12-05T09:52:57;101122.52;;;21.30;30.39
76827;BME280;65788;52.284;20.890;2022-12-05T09:55:37;101121.52;;;21.17;30.52
76827;BME280;65788;52.284;20.890;2022-12-05T09:58:24;101127.55;;;21.02;31.04
76827;BME280;65788;52.284;20.890;2022-12-05T10:01:01;101123.71;;;20.76;31.15
76827;BME280;65788;52.284;20.890;2022-12-05T10:03:40;101120.55;;;20.77;31.09
76827;BME280;65788;52.284;20.890;2022-12-05T10:06:20;101121.43;;;20.68;31.17
76827;BME280;65788;52.284;20.890;2022-12-05T10:09:18;101121.20;;;20.58;31.28
76827;BME280;65788;52.284;20.890;2022-12-05T10:12:00;101122.91;;;20.54;31.32
76827;BME280;65788;52.284;20.890;2022-12-05T10:14:42;101120.98;;;20.49;31.35
76827;BME280;65788;52.284;20.890;2022-12-05T10:17:22;101117.64;;;20.42;31.39
76827;BME280;65788;52.284;20.890;2022-12-05T10:19:57;101114.04;;;20.37;31.42
76827;BME280;65788;52.284;20.890;2022-12-05T10:22:35;101115.52;;;20.35;31.45
76827;BME280;65788;52.284;20.890;2022-12-05T10:25:11;101111.73;;;20.37;31.39
76827;BME280;65788;52.284;20.890;2022-12-05T10:27:48;101107.22;;;20.26;31.47
76827;BME280;65788;52.284;20.890;2022-12-05T10:30:23;101106.06;;;20.28;31.44
76827;BME280;65788;52.284;20.890;2022-12-05T10:32:56;101100.16;;;20.31;31.39
76827;BME280;65788;52.284;20.890;2022-12-05T10:35:30;101104.06;;;20.33;31.38
76827;BME280;65788;52.284;20.890;2022-12-05T10:38:05;101102.88;;;20.36;31.41
76827;BME280;65788;52.284;20.890;2022-12-05T10:40:38;101100.74;;;20.43;31.32
76827;BME280;65788;52.284;20.890;2022-12-05T10:43:15;101090.64;;;20.47;31.32
76827;BME280;65788;52.284;20.890;2022-12-05T10:45:46;101089.91;;;20.57;31.28
76827;BME280;65788;52.284;20.890;2022-12-05T10:48:19;101088.56;;;20.60;31.15
76827;BME280;65788;52.284;20.890;2022-12-05T10:50:52;101090.82;;;20.61;31.04
76827;BME280;65788;52.284;20.890;2022-12-05T10:53:25;101091.45;;;20.59;31.18
76827;BME280;65788;52.284;20.890;2022-12-05T10:55:56;101087.52;;;20.62;31.12
76827;BME280;65788;52.284;20.890;2022-12-05T10:58:28;101092.49;;;20.61;31.07
76827;BME280;65788;52.284;20.890;2022-12-05T11:01:08;101092.40;;;20.60;31.07
76827;BME280;65788;52.284;20.890;2022-12-05T11:03:40;101088.55;;;20.62;31.09
76827;BME280;65788;52.284;20.890;2022-12-05T11:06:18;101084.64;;;20.75;31.57
76827;BME280;65788;52.284;20.890;2022-12-05T11:08:55;101082.48;;;20.67;31.03
76827;BME280;65788;52.284;20.890;2022-12-05T11:11:27;101077.70;;;20.68;31.03
76827;BME280;65788;52.284;20.890;2022-12-05T11:14:00;101075.53;;;20.69;31.01
76827;BME280;65788;52.284;20.890;2022-12-05T11:16:33;101074.04;;;20.74;31.03
76827;BME280;65788;52.284;20.890;2022-12-05T11:19:22;101066.50;;;20.74;31.08
76827;BME280;65788;52.284;20.890;2022-12-05T11:21:55;101061.94;;;20.62;31.14
76827;BME280;65788;52.284;20.890;2022-12-05T11:24:28;101056.91;;;20.79;31.47
76827;BME280;65788;52.284;20.890;2022-12-05T11:27:17;101054.19;;;20.65;31.17
76827;BME280;65788;52.284;20.890;2022-12-05T11:29:58;101054.81;;;20.75;31.86
76827;BME280;65788;52.284;20.890;2022-12-05T11:32:31;101051.32;;;20.72;31.09
76827;BME280;65788;52.284;20.890;2022-12-05T11:35:24;101044.96;;;20.68;31.10
76827;BME280;65788;52.284;20.890;2022-12-05T11:37:58;101043.41;;;20.64;31.14
76827;BME280;65788;52.284;20.890;2022-12-05T11:40:35;101038.92;;;20.63;31.13
76827;BME280;65788;52.284;20.890;2022-12-05T11:43:10;101033.71;;;20.62;31.15
76827;BME280;65788;52.284;20.890;2022-12-05T11:45:56;101036.86;;;20.59;31.18
76827;BME280;65788;52.284;20.890;2022-12-05T11:48:45;101036.92;;;20.58;31.23
76827;BME280;65788;52.284;20.890;2022-12-05T11:51:36;101030.89;;;20.54;31.25
76827;BME280;65788;52.284;20.890;2022-12-05T11:54:22;101031.31;;;20.61;31.25
76827;BME280;65788;52.284;20.890;2022-12-05T11:57:03;101036.63;;;20.52;31.29
76827;BME280;65788;52.284;20.890;2022-12-05T12:00:04;101038.29;;;20.52;31.29
76827;BME280;65788;52.284;20.890;2022-12-05T12:02:50;101039.88;;;20.50;31.29
76827;BME280;65788;52.284;20.890;2022-12-05T12:05:24;101034.20;;;20.53;31.23
76827;BME280;65788;52.284;20.890;2022-12-05T12:08:05;101034.23;;;20.41;31.39
76827;BME280;65788;52.284;20.890;2022-12-05T12:10:45;101029.53;;;20.39;31.41
76827;BME280;65788;52.284;20.890;2022-12-05T12:13:34;101027.56;;;20.37;31.43
76827;BME280;65788;52.284;20.890;2022-12-05T12:16:14;101020.29;;;20.37;31.38
76827;BME280;65788;52.284;20.890;2022-12-05T12:19:07;101024.01;;;20.38;31.33
76827;BME280;65788;52.284;20.890;2022-12-05T12:21:57;101017.21;;;20.39;31.28
76827;BME280;65788;52.284;20.890;2022-12-05T12:24:38;101012.09;;;20.33;31.31
76827;BME280;65788;52.284;20.890;2022-12-05T12:27:21;101013.63;;;20.31;31.29
76827;BME280;65788;52.284;20.890;2022-12-05T12:30:05;101010.77;;;20.28;31.37
76827;BME280;65788;52.284;20.890;2022-12-05T12:32:46;101008.06;;;20.24;31.12
76827;BME280;65788;52.284;20.890;2022-12-05T12:35:31;101008.54;;;20.27;31.04
76827;BME280;65788;52.284;20.890;2022-12-05T12:38:45;101008.63;;;20.24;31.30
76827;BME280;65788;52.284;20.890;2022-12-05T12:41:31;101003.52;;;20.20;31.31
76827;BME280;65788;52.284;20.890;2022-12-05T12:44:19;101001.09;;;20.16;31.43
76827;BME280;65788;52.284;20.890;2022-12-05T12:46:58;101001.05;;;20.13;31.55
76827;BME280;65788;52.284;20.890;2022-12-05T12:49:42;100996.86;;;20.18;31.46
76827;BME280;65788;52.284;20.890;2022-12-05T12:52:17;100994.98;;;20.22;31.32
76827;BME280;65788;52.284;20.890;2022-12-05T12:55:03;100998.83;;;20.26;31.27
76827;BME280;65788;52.284;20.890;2022-12-05T12:57:51;100997.98;;;20.26;31.29
76827;BME280;65788;52.284;20.890;2022-12-05T13:00:33;100997.59;;;20.27;31.26
76827;BME280;65788;52.284;20.890;2022-12-05T13:03:11;100995.96;;;20.31;31.18
76827;BME280;65788;52.284;20.890;2022-12-05T13:05:47;101001.81;;;20.33;31.17
76827;BME280;65788;52.284;20.890;2022-12-05T13:08:25;101000.27;;;20.32;31.20
76827;BME280;65788;52.284;20.890;2022-12-05T13:10:58;100998.81;;;20.46;32.53
76827;BME280;65788;52.284;20.890;2022-12-05T13:13:35;100996.58;;;20.37;32.09
76827;BME280;65788;52.284;20.890;2022-12-05T13:16:09;100993.21;;;20.41;31.53
76827;BME280;65788;52.284;20.890;2022-12-05T13:18:42;100992.38;;;20.45;31.47
76827;BME280;65788;52.284;20.890;2022-12-05T13:21:13;100987.93;;;20.25;32.33
76827;BME280;65788;52.284;20.890;2022-12-05T13:23:47;100986.88;;;19.52;33.27
76827;BME280;65788;52.284;20.890;2022-12-05T13:26:20;100985.08;;;19.60;32.56